NCAR-RAP Real-Time Weather Data

Output produced by METARs form (08 May 2021  15:55 UTC)
found at http://weather.rap.ucar.edu/surface/
 
KELD 081453Z AUTO 18008KT 10SM CLR 24/13 A3003 RMK AO2 SLP168 T02440133 58005
KELD 081353Z AUTO 16008KT 10SM CLR 20/13 A3005 RMK AO2 SLP172 T02000128
KELD 081253Z AUTO 16005KT 10SM CLR 16/11 A3006 RMK AO2 SLP176 T01610106
KELD 081153Z AUTO 15003KT 10SM CLR 14/10 A3005 RMK AO2 SLP173 T01390100 10172 20128 53005
KELD 081053Z AUTO 00000KT 10SM CLR 13/11 A3004 RMK AO2 SLP171 T01330106
KELD 080953Z AUTO 16003KT 10SM CLR 14/10 A3003 RMK AO2 SLP167 T01390100
KELD 080853Z AUTO 16003KT 10SM CLR 14/10 A3004 RMK AO2 SLP168 T01440100 56013
KELD 080753Z AUTO 00000KT 10SM CLR 15/11 A3004 RMK AO2 SLP169 T01500106
KELD 080653Z AUTO 20005KT 10SM CLR 14/11 A3006 RMK AO2 SLP177 T01440111
KELD 080553Z AUTO 13004KT 10SM CLR 17/11 A3007 RMK AO2 SLP180 T01720106 10239 20161 402560111 53001
KELD 080453Z AUTO 12004KT 10SM CLR 17/10 A3006 RMK AO2 SLP176 T01720100
KELD 080353Z AUTO 11005KT 10SM CLR 17/11 A3007 RMK AO2 SLP180 T01720111
KELD 080253Z AUTO 12005KT 10SM CLR 16/12 A3007 RMK AO2 SLP180 T01610117 53001
KELD 080153Z AUTO 00000KT 10SM CLR 17/12 A3006 RMK AO2 SLP178 T01670122